Data for 11/09/2017

Time Sea-Level Adjusted Pressure Absolute Pressure Temperature Relative Humidity Dew Point   
(mb) (inHg) (mb) (inHg) (C) (F) (%) (C) (F)
00:05 1020 30.12 849 25.07 -3.5 25.6 75 -7.3 18.8
00:10 1020 30.12 849 25.07 -3.7 25.4 76 -7.4 18.8
00:15 1019 30.09 849 25.07 -3.8 25.2 76 -7.4 18.7
00:20 1019 30.09 849 25.07 -4 24.8 77 -7.5 18.5
00:25 1019 30.09 849 25.07 -4.1 24.6 78 -7.5 18.6
00:30 1019 30.09 848 25.04 -4.2 24.4 78 -7.6 18.4
00:35 1019 30.09 848 25.04 -4.3 24.3 78 -7.6 18.3
00:40 1019 30.09 848 25.04 -4.3 24.3 78 -7.7 18.2
00:45 1019 30.09 848 25.04 -4.2 24.4 77 -7.7 18.2
00:50 1019 30.09 848 25.04 -4.1 24.5 76 -7.7 18.1
00:55 1019 30.09 848 25.04 -4.2 24.5 77 -7.6 18.2
01:00 1019 30.09 848 25.04 -4.2 24.4 76 -7.9 17.8
01:05 1019 30.09 848 25.04 -4 24.8 75 -7.9 17.8
01:10 1019 30.09 848 25.04 -3.9 24.9 74 -7.9 17.8
01:15 1019 30.09 848 25.04 -3.9 25.1 74 -7.8 17.9
01:20 1019 30.09 848 25.04 -3.8 25.2 74 -7.7 18.1
01:25 1019 30.09 848 25.04 -3.6 25.5 74 -7.6 18.3
01:30 1019 30.09 848 25.04 -3.6 25.5 73 -7.7 18.1
01:35 1019 30.09 848 25.04 -3.6 25.5 73 -7.7 18.1
01:40 1019 30.09 848 25.04 -3.5 25.6 73 -7.7 18.1
01:45 1019 30.09 848 25.04 -3.5 25.7 73 -7.7 18.1
01:50 1019 30.09 849 25.07 -3.6 25.6 74 -7.6 18.4
01:55 1019 30.09 849 25.07 -3.7 25.3 74 -7.7 18.2
02:00 1019 30.09 848 25.04 -3.9 24.9 75 -7.8 18
02:05 1019 30.09 848 25.04 -4.1 24.6 76 -7.7 18.1
02:10 1019 30.09 848 25.04 -4.3 24.3 76 -7.8 17.9
02:15 1019 30.09 848 25.04 -4.3 24.2 77 -7.9 17.9
02:20 1019 30.09 848 25.04 -4.3 24.2 77 -7.7 18.1
02:25 1019 30.09 848 25.04 -4.5 24 78 -7.8 18
02:30 1019 30.09 848 25.04 -4.5 24 78 -7.7 18.1
02:35 1019 30.09 848 25.04 -4.5 23.9 78 -7.7 18.1
02:40 1019 30.09 848 25.04 -4.5 23.8 78 -7.7 18.1
02:45 1019 30.09 848 25.04 -4.5 23.8 78 -7.8 18
02:50 1019 30.09 848 25.04 -4.5 23.9 79 -7.7 18.2
02:55 1019 30.09 848 25.04 -4.5 23.9 78 -7.7 18.1
03:00 1019 30.09 848 25.04 -4.5 23.9 78 -7.7 18.1
03:05 1018 30.06 848 25.04 -4.5 24 78 -7.7 18.1
03:10 1018 30.06 848 25.04 -4.4 24 77 -7.8 18
03:15 1018 30.06 848 25.04 -4.3 24.3 77 -7.7 18.1
03:20 1018 30.06 847 25.01 -4.3 24.2 78 -7.6 18.3
03:25 1018 30.06 847 25.01 -4.4 24 78 -7.7 18.2
03:30 1018 30.06 847 25.01 -4.4 24 78 -7.7 18.2
03:35 1018 30.06 847 25.01 -4.4 24.1 77 -7.8 18
03:40 1018 30.06 847 25.01 -4.3 24.3 77 -7.7 18.2
03:45 1018 30.06 847 25.01 -4.2 24.4 77 -7.7 18.2
03:50 1018 30.06 847 25.01 -4.2 24.5 77 -7.6 18.3
03:55 1018 30.06 847 25.01 -4.3 24.3 77 -7.7 18.2
04:00 1018 30.06 847 25.01 -4.3 24.3 77 -7.7 18.1
04:05 1018 30.06 847 25.01 -4.2 24.5 77 -7.7 18.1
04:10 1018 30.06 847 25.01 -4.1 24.6 76 -7.8 18
04:15 1018 30.06 847 25.01 -3.9 24.9 75 -7.8 18
04:20 1018 30.06 847 25.01 -3.8 25.1 75 -7.7 18.1
04:25 1018 30.06 847 25.01 -3.7 25.3 74 -7.7 18.1
04:30 1017 30.03 847 25.01 -3.6 25.5 74 -7.6 18.3
04:35 1017 30.03 847 25.01 -3.4 25.8 73 -7.6 18.3
04:40 1017 30.03 847 25.01 -3.3 26 73 -7.6 18.4
04:45 1018 30.06 847 25.01 -3.3 26 73 -7.5 18.5
04:50 1018 30.06 847 25.01 -3.3 26.1 73 -7.4 18.6
04:55 1018 30.06 847 25.01 -3.3 26 74 -7.3 18.8
05:00 1018 30.06 847 25.01 -3.5 25.7 75 -7.4 18.7
05:05 1018 30.06 847 25.01 -3.7 25.3 76 -7.4 18.6
05:10 1018 30.06 847 25.01 -3.9 24.9 77 -7.4 18.7
05:15 1018 30.06 847 25.01 -4 24.8 77 -7.4 18.6
05:20 1018 30.06 847 25.01 -4.1 24.7 77 -7.5 18.5
05:25 1018 30.06 847 25.01 -4.1 24.6 77 -7.5 18.6
05:30 1018 30.06 847 25.01 -4.1 24.6 77 -7.5 18.5
05:35 1018 30.06 847 25.01 -4 24.9 75 -7.7 18.1
05:40 1017 30.03 847 25.01 -3.7 25.4 74 -7.7 18.2
05:45 1017 30.03 846 24.98 -3.5 25.6 75 -7.4 18.6
05:50 1017 30.03 846 24.98 -3.6 25.5 74 -7.5 18.5
05:55 1017 30.03 847 25.01 -3.6 25.6 74 -7.5 18.5
06:00 1017 30.03 846 24.98 -3.5 25.6 74 -7.5 18.5
06:05 1017 30.03 846 24.98 -3.5 25.7 73 -7.6 18.4
06:10 1017 30.03 846 24.98 -3.4 25.8 73 -7.6 18.3
06:15 1017 30.03 846 24.98 -3.4 25.9 73 -7.6 18.3
06:20 1017 30.03 846 24.98 -3.3 26 72 -7.7 18.1
06:25 1017 30.03 846 24.98 -3.3 26.1 72 -7.7 18.1
06:30 1017 30.03 846 24.98 -3.3 26.1 72 -7.7 18.2
06:35 1017 30.03 846 24.98 -3.1 26.4 71 -7.6 18.3
06:40 1017 30.03 846 24.98 -3.1 26.5 71 -7.7 18.2
06:45 1017 30.03 846 24.98 -3 26.7 70 -7.8 18
06:50 1017 30.03 846 24.98 -2.8 27 69 -7.6 18.3
06:55 1017 30.03 846 24.98 -2.6 27.3 69 -7.5 18.5
07:00 1017 30.03 846 24.98 -2.6 27.4 69 -7.4 18.7
07:05 1017 30.03 846 24.98 -2.6 27.4 68 -7.6 18.3
07:10 1017 30.03 846 24.98 -2.5 27.5 70 -7.3 18.9
07:15 1017 30.03 846 24.98 -2.6 27.3 72 -6.9 19.6
07:20 1017 30.03 846 24.98 -2.9 26.7 74 -6.9 19.6
07:25 1017 30.03 846 24.98 -3.2 26.2 75 -7 19.4
07:30 1016 30 846 24.98 -3.3 26.1 74 -7.2 19
07:35 1016 30 845 24.95 -3.1 26.4 73 -7.3 18.9
07:40 1016 30 846 24.98 -3.1 26.5 72 -7.4 18.7
07:45 1016 30 845 24.95 -3 26.6 71 -7.5 18.4
07:50 1016 30 845 24.95 -2.9 26.8 71 -7.5 18.5
07:55 1016 30 846 24.98 -2.8 26.9 71 -7.3 18.9
08:00 1016 30 846 24.98 -2.8 27 70 -7.5 18.6
08:05 1016 30 845 24.95 -2.7 27.2 68 -7.7 18.1
08:10 1016 30 845 24.95 -2.6 27.3 68 -7.7 18.1
08:15 1016 30 845 24.95 -2.7 27.2 69 -7.6 18.3
08:20 1016 30 845 24.95 -2.7 27.2 70 -7.5 18.6
08:25 1016 30 845 24.95 -2.5 27.4 69 -7.5 18.5
08:30 1016 30 845 24.95 -2.3 27.9 68 -7.3 18.8
08:35 1016 30 845 24.95 -2.1 28.2 66 -7.5 18.4
08:40 1016 30 845 24.95 -1.7 28.9 65 -7.5 18.6
08:45 1016 30 845 24.95 -1.4 29.4 64 -7.3 18.8
08:50 1016 30 846 24.98 -1.2 29.9 66 -6.7 20
08:55 1017 30.03 846 24.98 -1.4 29.5 68 -6.6 20.2
09:00 1017 30.03 846 24.98 -1.7 29 69 -6.5 20.2
09:05 1017 30.03 846 24.98 -1.9 28.6 70 -6.6 20.2
09:10 1017 30.03 846 24.98 -2.3 27.9 73 -6.5 20.3
09:15 1017 30.03 846 24.98 -2.7 27.2 73 -6.9 19.7
09:20 1016 30 845 24.95 -3 26.7 74 -7 19.4
09:25 1016 30 845 24.95 -2.8 26.9 74 -6.8 19.7
09:30 1016 30 845 24.95 -2.6 27.3 74 -6.6 20.1
09:35 1016 30 845 24.95 -2.3 28 67 -7.5 18.4
09:40 1016 30 845 24.95 -1.9 28.6 66 -7.4 18.7
09:45 1016 30 845 24.95 -2 28.4 67 -7.3 18.8
09:50 1015 29.97 845 24.95 -1.9 28.5 67 -7.3 18.8
09:55 1016 30 845 24.95 -1.7 29 65 -7.5 18.5
10:00 1016 30 845 24.95 -1.4 29.5 64 -7.4 18.8
10:05 1015 29.97 845 24.95 -1.2 29.8 65 -7 19.4
10:10 1016 30 845 24.95 -1.1 30 65 -6.8 19.7
10:15 1016 30 845 24.95 -1 30.2 63 -7.3 18.9
10:20 1016 30 845 24.95 -0.6 30.9 64 -6.6 20
10:25 1016 30 845 24.95 -0.7 30.8 66 -6.2 20.8
10:30 1016 30 845 24.95 -1.3 29.7 68 -6.5 20.4
10:35 1016 30 845 24.95 -1.6 29.1 68 -6.7 19.9
10:40 1016 30 845 24.95 -1.7 29 70 -6.5 20.3
10:45 1016 30 845 24.95 -1.9 28.6 70 -6.6 20
10:50 1016 30 845 24.95 -1.6 29 68 -6.8 19.8
10:55 1016 30 845 24.95 -1.6 29.1 68 -6.7 19.9
11:00 1016 30 845 24.95 -1 30.2 65 -6.8 19.8
11:05 1015 29.97 844 24.92 -0.7 30.8 65 -6.5 20.3
11:10 1015 29.97 844 24.92 -0.7 30.8 65 -6.5 20.3
11:15 1015 29.97 844 24.92 -0.5 31 64 -6.5 20.4
11:20 1015 29.97 844 24.92 -0.4 31.2 63 -6.6 20.1
11:25 1015 29.97 844 24.92 -0.4 31.3 62 -6.7 20
11:30 1014 29.94 844 24.92 -0.2 31.7 62 -6.7 20
11:35 1014 29.94 843 24.89 -0.1 31.9 62 -6.5 20.4
11:40 1014 29.94 843 24.89 0.4 32.7 60 -6.6 20.2
11:45 1014 29.94 843 24.89 0.7 33.3 58 -6.6 20.1
11:50 1014 29.94 843 24.89 1.6 34.9 55 -6.4 20.5
11:55 1014 29.94 843 24.89 2.1 35.7 56 -5.7 21.7
12:00 1014 29.94 843 24.89 2.3 36.2 57 -5.4 22.2
12:05 1014 29.94 843 24.89 2.9 37.3 54 -5.5 22.1
12:10 1014 29.94 843 24.89 4 39.2 51 -5.2 22.7
12:15 1014 29.94 843 24.89 3.6 38.5 54 -4.8 23.3
12:20 1014 29.94 843 24.89 3 37.4 56 -4.8 23.3
12:25 1014 29.94 843 24.89 2.6 36.7 58 -4.8 23.3
12:30 1014 29.94 843 24.89 2.2 35.9 59 -5.1 22.9
12:35 1014 29.94 843 24.89 2.1 35.9 57 -5.4 22.2
12:40 1014 29.94 843 24.89 1.9 35.4 59 -5.3 22.5
12:45 1014 29.94 843 24.89 1.8 35.3 59 -5.3 22.5
12:50 1014 29.94 843 24.89 2 35.5 60 -5.1 22.9
12:55 1014 29.94 843 24.89 1.7 35 61 -5 22.9
13:00 1014 29.94 843 24.89 1.2 34.1 63 -5 23
13:05 1014 29.94 843 24.89 1.4 34.6 62 -5.1 22.9
13:10 1014 29.94 843 24.89 1.6 34.8 61 -5.1 22.9
13:15 1013 29.91 843 24.89 2.2 35.9 59 -5.1 22.9
13:20 1013 29.91 842 24.86 3.1 37.5 55 -5 22.9
13:25 1013 29.91 842 24.86 3.6 38.4 53 -5.2 22.6
13:30 1013 29.91 842 24.86 3 37.5 55 -5.1 22.8
13:35 1013 29.91 842 24.86 3 37.4 55 -5.1 22.8
13:40 1013 29.91 843 24.89 3.8 38.9 52 -5.1 22.7
13:45 1013 29.91 843 24.89 4.2 39.5 51 -5 23
13:50 1013 29.91 843 24.89 5.1 41.2 47 -5.2 22.7
13:55 1013 29.91 843 24.89 5.3 41.6 49 -4.5 23.9
14:00 1013 29.91 843 24.89 5.2 41.4 50 -4.3 24.3
14:05 1013 29.91 843 24.89 3.6 38.5 53 -5 23
14:10 1013 29.91 843 24.89 3.2 37.8 52 -5.8 21.5
14:15 1014 29.94 843 24.89 4.3 39.8 48 -5.7 21.7
14:20 1014 29.94 843 24.89 3.9 39.1 51 -5.3 22.4
14:25 1014 29.94 843 24.89 3.3 38 54 -5.1 22.9
14:30 1014 29.94 843 24.89 2.7 36.8 56 -5.2 22.6
14:35 1014 29.94 843 24.89 2.4 36.3 56 -5.5 22.2
14:40 1014 29.94 843 24.89 2.5 36.5 57 -5.2 22.7
14:45 1014 29.94 843 24.89 2.6 36.6 59 -4.7 23.6
14:50 1014 29.94 843 24.89 1.9 35.5 61 -4.9 23.2
14:55 1014 29.94 843 24.89 1.8 35.2 62 -4.7 23.5
15:00 1014 29.94 843 24.89 1.9 35.4 60 -5.2 22.7
15:05 1014 29.94 843 24.89 1.7 35 61 -4.9 23.1
15:10 1014 29.94 843 24.89 1.9 35.4 58 -5.4 22.2
15:15 1014 29.94 843 24.89 1.9 35.4 60 -5 23
15:20 1014 29.94 843 24.89 1.9 35.4 62 -4.5 23.9
15:25 1014 29.94 843 24.89 2.1 35.7 62 -4.4 24.1
15:30 1014 29.94 843 24.89 1.9 35.5 62 -4.5 23.9
15:35 1014 29.94 843 24.89 1.9 35.3 64 -4.3 24.3
15:40 1014 29.94 843 24.89 1.6 34.8 66 -4.1 24.6
15:45 1014 29.94 843 24.89 1.5 34.7 65 -4.3 24.3
15:50 1013 29.91 843 24.89 1.3 34.3 67 -4.2 24.4
15:55 1013 29.91 843 24.89 1.1 34.1 68 -4.1 24.7
16:00 1014 29.94 843 24.89 1.3 34.3 67 -4.3 24.3
16:05 1013 29.91 843 24.89 1.2 34.2 65 -4.5 23.8
16:10 1013 29.91 843 24.89 1.3 34.3 67 -4.3 24.3
16:15 1013 29.91 843 24.89 1.4 34.4 67 -4.2 24.5
16:20 1013 29.91 843 24.89 1.3 34.4 68 -4 24.8
16:25 1013 29.91 843 24.89 1.6 34.8 65 -4.2 24.4
16:30 1013 29.91 843 24.89 1.9 35.3 66 -3.9 25
16:35 1013 29.91 843 24.89 1.9 35.4 65 -3.9 25
16:40 1013 29.91 842 24.86 2 35.5 66 -3.8 25.2
16:45 1013 29.91 842 24.86 1.5 34.7 68 -3.8 25.2
16:50 1013 29.91 842 24.86 1.2 34.2 70 -3.7 25.4
16:55 1013 29.91 842 24.86 1.3 34.3 70 -3.6 25.6
17:00 1013 29.91 842 24.86 1.3 34.3 70 -3.6 25.6
17:05 1013 29.91 842 24.86 1.2 34.1 71 -3.5 25.8
17:10 1013 29.91 842 24.86 1.3 34.3 71 -3.4 25.9
17:15 1013 29.91 842 24.86 1.1 34 73 -3.2 26.2
17:20 1013 29.91 842 24.86 1 33.8 73 -3.3 26.1
17:25 1013 29.91 842 24.86 0.7 33.2 75 -3.2 26.2
17:30 1013 29.91 842 24.86 0.6 33.1 77 -3 26.7
17:35 1013 29.91 842 24.86 1 33.8 75 -2.8 26.9
17:40 1013 29.91 842 24.86 1.5 34.6 76 -2.3 27.9
17:45 1013 29.91 842 24.86 1.8 35.3 76 -2 28.3
17:50 1013 29.91 842 24.86 1.9 35.5 75 -2 28.3
17:55 1013 29.91 842 24.86 1.9 35.4 77 -1.7 28.9
18:00 1013 29.91 842 24.86 2 35.7 76 -1.8 28.7
18:05 1013 29.91 842 24.86 2.3 36.2 72 -2.2 28.1
18:10 1013 29.91 842 24.86 2.5 36.6 73 -1.8 28.7
18:15 1013 29.91 842 24.86 2.3 36.1 75 -1.7 28.9
18:20 1013 29.91 842 24.86 1.8 35.2 79 -1.5 29.3
18:25 1013 29.91 842 24.86 1.4 34.6 79 -1.8 28.8
18:30 1013 29.91 842 24.86 1.4 34.5 78 -2 28.4
18:35 1013 29.91 842 24.86 1.6 34.8 77 -2.1 28.2
18:40 1013 29.91 842 24.86 1.8 35.3 75 -2.2 28
18:45 1013 29.91 842 24.86 2.1 35.8 73 -2.3 27.9
18:50 1013 29.91 842 24.86 2.2 35.9 74 -2 28.3
18:55 1013 29.91 842 24.86 2 35.6 76 -1.8 28.8
19:00 1013 29.91 842 24.86 2.1 35.7 76 -1.8 28.8
19:05 1013 29.91 842 24.86 2 35.7 76 -1.7 28.9
19:10 1013 29.91 842 24.86 2.1 35.7 76 -1.8 28.8
19:15 1013 29.91 842 24.86 2.1 35.8 75 -1.9 28.6
19:20 1013 29.91 842 24.86 2.2 36 73 -2 28.4
19:25 1013 29.91 842 24.86 2.1 35.8 73 -2.3 27.9
19:30 1013 29.91 842 24.86 2.4 36.3 73 -2 28.4
19:35 1013 29.91 842 24.86 2.5 36.4 73 -1.9 28.6
19:40 1013 29.91 842 24.86 2.4 36.3 73 -2 28.5
19:45 1013 29.91 842 24.86 2.5 36.5 72 -2.1 28.3
19:50 1013 29.91 842 24.86 2.8 37 70 -2.2 28
19:55 1013 29.91 842 24.86 2.9 37.3 68 -2.3 27.9
20:00 1013 29.91 842 24.86 2.9 37.2 69 -2.3 27.9
20:05 1013 29.91 842 24.86 2.9 37.1 69 -2.3 27.8
20:10 1013 29.91 842 24.86 2.8 37 69 -2.3 27.8
20:15 1013 29.91 842 24.86 2.6 36.8 70 -2.3 27.8
20:20 1013 29.91 842 24.86 2.5 36.5 70 -2.4 27.7
20:25 1013 29.91 842 24.86 2.3 36.1 72 -2.3 27.8
20:30 1013 29.91 842 24.86 2.5 36.5 69 -2.6 27.4
20:35 1013 29.91 842 24.86 2.5 36.5 70 -2.4 27.8
20:40 1013 29.91 842 24.86 2.5 36.5 70 -2.4 27.6
20:45 1013 29.91 842 24.86 2.4 36.2 70 -2.5 27.5
20:50 1013 29.91 842 24.86 2.6 36.6 68 -2.6 27.3
20:55 1013 29.91 842 24.86 2.6 36.7 69 -2.6 27.4
21:00 1013 29.91 842 24.86 3 37.4 64 -3.2 26.3
21:05 1013 29.91 842 24.86 3.2 37.7 65 -2.8 27
21:10 1013 29.91 842 24.86 2.9 37.3 68 -2.4 27.8
21:15 1013 29.91 842 24.86 2.2 36 70 -2.7 27.1
21:20 1013 29.91 842 24.86 2.2 35.9 70 -2.7 27.2
21:25 1013 29.91 842 24.86 2.3 36.1 69 -2.8 27
21:30 1013 29.91 842 24.86 2.4 36.2 69 -2.7 27.2
21:35 1013 29.91 842 24.86 2.3 36.2 71 -2.5 27.5
21:40 1013 29.91 842 24.86 1.8 35.3 73 -2.6 27.4
21:45 1013 29.91 842 24.86 1.1 34 75 -2.9 26.9
21:50 1013 29.91 842 24.86 0.4 32.7 77 -3.2 26.3
21:55 1013 29.91 842 24.86 0 32 79 -3.2 26.2
22:00 1013 29.91 842 24.86 -0.2 31.7 79 -3.3 26
22:05 1013 29.91 843 24.89 -0.1 31.9 79 -3.3 26.1
22:10 1013 29.91 843 24.89 -0 31.9 77 -3.6 25.5
22:15 1014 29.94 843 24.89 -0.1 31.8 75 -4 24.7
22:20 1014 29.94 843 24.89 -0.6 31 75 -4.5 24
22:25 1014 29.94 843 24.89 -0.8 30.5 75 -4.6 23.7
22:30 1014 29.94 843 24.89 -1.1 30 77 -4.7 23.5
22:35 1014 29.94 843 24.89 -1.1 30 78 -4.5 23.8
22:40 1014 29.94 843 24.89 -0.9 30.3 77 -4.4 24
22:45 1014 29.94 843 24.89 -0.6 30.9 76 -4.4 24.2
22:50 1014 29.94 843 24.89 0 32 74 -4.1 24.6
22:55 1014 29.94 843 24.89 0.2 32.4 74 -3.9 25
23:00 1014 29.94 844 24.92 -0.2 31.7 74 -4.2 24.5
23:05 1014 29.94 843 24.89 -0.4 31.4 75 -4.2 24.4
23:10 1014 29.94 843 24.89 -0.1 31.8 75 -4.1 24.6
23:15 1014 29.94 843 24.89 -0.1 31.8 75 -4 24.7
23:20 1014 29.94 843 24.89 0.1 32.2 74 -4 24.8
23:25 1014 29.94 843 24.89 0.6 33.1 71 -4.1 24.6
23:30 1014 29.94 843 24.89 1 33.7 70 -3.8 25.1
23:35 1014 29.94 843 24.89 1.3 34.4 68 -4 24.8
23:40 1014 29.94 843 24.89 1.6 34.9 67 -3.8 25.1
23:45 1014 29.94 843 24.89 1.8 35.2 67 -3.8 25.2
23:50 1014 29.94 843 24.89 1.9 35.4 66 -3.8 25.1
23:55 1014 29.94 843 24.89 1.9 35.4 66 -3.9 25.1
24:00 1014 29.94 843 24.89 2.1 35.8 65 -3.9 25